Trout Dale, Virginia
Current Conditions -  °F | °C
As of 1:35 PM on Saturday 25 Oct 2014 (Local Time) from KMKJ Reporting Station
Clear Clear  
Wind Chill: 62°   Ceiling: Unl
Heat Index: 62°   Visibility: 10mi
Dew Point: 43°   Wind: 14mph
Humidity: 50%   Direction: 240°WSW
Pressure: 30.05"   Gusts: NA
Location:  36.6855°N, 81.435°W
Report Text: KMKJ 251735Z AUTO 24012KT 10SM CLR 17/06 A3005 RMK AO2 T01670062
Loading
Personal Weather Stations






























Interactive Weather Map
Tropical Storm Tracking
New forecast layout! Learn more

10-Day Weather Forecast

Advertisements
Track Severe Weather on mobile